Time;durP1;ratioP1;P1;durP2;ratioP2;P2;SDS_P1;SDS_P2;PMS_P1;PMS_P2;Temp;Humidity;BMP_temperature;BMP_pressure;BME280_temperature;BME280_humidity;BME280_pressure;Samples;Min_cycle;Max_cycle;Signal;HPM_P1;HPM_P2
2024/02/04 00:00:15;;;;;;;13.73;4.28;;;7.20;99.90;;;;;;5052846;28;20408;-71
2024/02/04 00:02:40;;;;;;;13.52;3.45;;;7.20;99.90;;;;;;5053175;28;20492;-71
2024/02/04 00:05:06;;;;;;;14.32;4.43;;;7.10;99.90;;;;;;5035453;28;20045;-71
2024/02/04 00:07:32;;;;;;;12.20;4.47;;;7.20;99.90;;;;;;5051944;28;20041;-71
2024/02/04 00:09:57;;;;;;;9.75;3.92;;;7.20;99.90;;;;;;5052892;28;20076;-71
2024/02/04 00:12:23;;;;;;;11.18;3.78;;;7.10;99.90;;;;;;5053049;28;20068;-71
2024/02/04 00:14:49;;;;;;;17.70;4.43;;;7.20;99.90;;;;;;5052842;28;20549;-71
2024/02/04 00:17:16;;;;;;;11.45;4.05;;;7.10;99.90;;;;;;5052694;28;20041;-72
2024/02/04 00:19:41;;;;;;;10.05;3.50;;;7.30;99.90;;;;;;5051423;28;20045;-71
2024/02/04 00:22:07;;;;;;;12.82;3.20;;;7.10;99.90;;;;;;5052857;28;20124;-71
2024/02/04 00:24:33;;;;;;;9.30;2.92;;;7.20;99.90;;;;;;5051648;28;20065;-71
2024/02/04 00:26:59;;;;;;;12.98;2.90;;;7.20;99.90;;;;;;5052660;28;20029;-71
2024/02/04 00:29:24;;;;;;;16.65;3.80;;;7.10;99.90;;;;;;5052314;28;20040;-70
2024/02/04 00:31:50;;;;;;;8.75;3.72;;;7.20;99.90;;;;;;5051330;28;20623;-70
2024/02/04 00:34:16;;;;;;;13.50;3.42;;;7.00;99.90;;;;;;5051331;28;20090;-70
2024/02/04 00:36:42;;;;;;;12.15;3.90;;;7.10;99.90;;;;;;5051104;28;20073;-70
2024/02/04 00:39:07;;;;;;;10.20;3.13;;;7.20;99.90;;;;;;5052388;28;20492;-70
2024/02/04 00:41:34;;;;;;;12.82;2.78;;;7.00;99.90;;;;;;5052417;28;20067;-71
2024/02/04 00:43:59;;;;;;;10.55;4.25;;;7.00;99.90;;;;;;5052270;28;20037;-71
2024/02/04 00:46:25;;;;;;;10.10;3.20;;;7.20;99.90;;;;;;5052212;28;20041;-71
2024/02/04 00:48:50;;;;;;;13.60;3.80;;;6.90;99.90;;;;;;5052368;28;20037;-71
2024/02/04 00:51:17;;;;;;;7.07;3.22;;;7.00;99.90;;;;;;5052229;28;20040;-71
2024/02/04 00:53:43;;;;;;;12.20;4.28;;;7.00;99.90;;;;;;5052192;28;20500;-71
2024/02/04 00:56:11;;;;;;;9.70;2.35;;;7.00;99.90;;;;;;5052114;28;20037;-71
2024/02/04 00:58:36;;;;;;;9.65;3.88;;;7.00;99.90;;;;;;5052002;28;20120;-71
2024/02/04 01:01:02;;;;;;;12.27;3.13;;;7.10;99.90;;;;;;5050640;28;20129;-71
2024/02/04 01:03:29;;;;;;;12.32;2.55;;;7.00;99.90;;;;;;5042838;28;20080;-71
2024/02/04 01:05:55;;;;;;;6.82;2.55;;;7.00;99.90;;;;;;5036659;28;20033;-71
2024/02/04 01:08:21;;;;;;;14.55;3.20;;;6.90;99.90;;;;;;5043272;28;20048;-71
2024/02/04 01:10:47;;;;;;;8.98;2.88;;;6.90;99.90;;;;;;5051803;28;20451;-71
2024/02/04 01:13:14;;;;;;;9.65;2.80;;;7.00;99.90;;;;;;5051725;28;20099;-71
2024/02/04 01:15:39;;;;;;;10.38;2.75;;;7.00;99.90;;;;;;5050698;28;20028;-71
2024/02/04 01:18:05;;;;;;;11.60;2.25;;;7.00;99.90;;;;;;5043278;28;20059;-71
2024/02/04 01:20:30;;;;;;;7.60;2.15;;;6.90;99.90;;;;;;5051646;28;20043;-71
2024/02/04 01:22:56;;;;;;;12.27;3.35;;;7.00;99.90;;;;;;5051714;28;20041;-71
2024/02/04 01:25:22;;;;;;;7.82;2.33;;;6.80;99.90;;;;;;5051948;28;20033;-71
2024/02/04 01:27:47;;;;;;;9.43;2.47;;;6.90;99.90;;;;;;5051424;28;20037;-71
2024/02/04 01:30:13;;;;;;;13.77;3.00;;;6.80;99.90;;;;;;5051629;28;20029;-71
2024/02/04 01:32:38;;;;;;;11.25;2.35;;;6.90;99.90;;;;;;5051832;28;20611;-71
2024/02/04 01:35:04;;;;;;;11.68;2.03;;;6.80;99.90;;;;;;5051627;28;20037;-71
2024/02/04 01:37:30;;;;;;;6.13;2.13;;;6.70;99.90;;;;;;5050106;28;20037;-71
2024/02/04 01:39:56;;;;;;;8.93;1.98;;;6.80;99.90;;;;;;5044564;28;20116;-71
2024/02/04 01:42:21;;;;;;;7.20;2.28;;;6.80;99.90;;;;;;5048735;28;20040;-71
2024/02/04 01:44:47;;;;;;;9.50;1.98;;;6.60;99.90;;;;;;5051710;28;20037;-71
2024/02/04 01:47:13;;;;;;;10.45;2.60;;;6.60;99.90;;;;;;5050293;28;20450;-71
2024/02/04 01:49:38;;;;;;;8.48;2.28;;;6.60;99.90;;;;;;5051449;28;20045;-71
2024/02/04 01:52:07;;;;;;;4.70;2.00;;;6.70;99.90;;;;;;5051483;28;20068;-71
2024/02/04 01:54:33;;;;;;;13.38;2.30;;;6.70;99.90;;;;;;5051475;28;20037;-71
2024/02/04 01:57:02;;;;;;;11.77;2.47;;;6.60;99.90;;;;;;5051185;28;20033;-71
2024/02/04 01:59:30;;;;;;;10.00;2.08;;;6.70;99.90;;;;;;5049899;28;20114;-70
2024/02/04 02:02:00;;;;;;;9.00;1.48;;;6.70;99.90;;;;;;5051391;28;20037;-70
2024/02/04 02:04:25;;;;;;;9.02;2.50;;;6.60;99.90;;;;;;5051512;28;20146;-70
2024/02/04 02:06:53;;;;;;;18.38;2.38;;;6.60;99.90;;;;;;5051278;28;20562;-70
2024/02/04 02:09:19;;;;;;;12.82;3.13;;;6.60;99.90;;;;;;5049721;28;20041;-70
2024/02/04 02:11:47;;;;;;;17.25;3.95;;;6.50;99.90;;;;;;5051387;28;20455;-70
2024/02/04 02:14:22;;;;;;;16.75;3.15;;;6.60;99.90;;;;;;5051214;28;20377;-70
2024/02/04 02:16:47;;;;;;;7.38;2.47;;;6.60;99.90;;;;;;5051084;28;20067;-70
2024/02/04 02:19:39;;;;;;;15.93;3.10;;;6.50;99.90;;;;;;5046499;28;20037;-70
2024/02/04 02:22:29;;;;;;;9.85;2.20;;;6.50;99.90;;;;;;5054994;28;20053;-70
2024/02/04 02:25:01;;;;;;;11.07;1.70;;;6.50;99.90;;;;;;5053973;28;20084;-70
2024/02/04 02:27:27;;;;;;;15.30;2.58;;;6.50;99.90;;;;;;5053571;28;20041;-70
2024/02/04 02:29:53;;;;;;;14.32;2.20;;;6.50;99.90;;;;;;5054766;28;20044;-70
2024/02/04 02:32:19;;;;;;;14.70;3.25;;;6.50;99.90;;;;;;5054829;28;20389;-70
2024/02/04 02:34:45;;;;;;;6.72;1.98;;;6.50;99.90;;;;;;5055448;28;20049;-71
2024/02/04 02:37:24;;;;;;;8.77;2.90;;;6.40;99.90;;;;;;5053652;28;20090;-70
2024/02/04 02:40:00;;;;;;;9.48;2.30;;;6.40;99.90;;;;;;5054895;28;20044;-71
2024/02/04 02:42:26;;;;;;;9.18;1.98;;;6.50;99.90;;;;;;5055024;28;20033;-71
2024/02/04 02:44:54;;;;;;;11.93;2.45;;;6.40;99.90;;;;;;5054616;28;20044;-70
2024/02/04 02:47:20;;;;;;;11.38;2.25;;;6.40;99.90;;;;;;5054792;28;20059;-71
2024/02/04 02:49:46;;;;;;;9.07;2.00;;;6.40;99.90;;;;;;5054693;28;20127;-70
2024/02/04 02:52:12;;;;;;;9.88;2.40;;;6.40;99.90;;;;;;5054717;28;20072;-70
2024/02/04 02:54:37;;;;;;;8.80;2.03;;;6.40;99.90;;;;;;5053145;28;20055;-70
2024/02/04 02:57:03;;;;;;;13.10;3.03;;;6.30;99.90;;;;;;5054406;28;20120;-70
2024/02/04 02:59:29;;;;;;;10.95;2.97;;;6.30;99.90;;;;;;5054051;28;20037;-70
2024/02/04 03:01:55;;;;;;;12.75;1.88;;;6.40;99.90;;;;;;5054382;28;20045;-71
2024/02/04 03:04:20;;;;;;;12.98;2.90;;;6.40;99.90;;;;;;5053092;28;20036;-71
2024/02/04 03:06:46;;;;;;;10.82;2.08;;;6.30;99.90;;;;;;5052888;28;20048;-71
2024/02/04 03:09:12;;;;;;;14.07;4.07;;;6.30;99.90;;;;;;5054037;28;20076;-71
2024/02/04 03:11:38;;;;;;;12.05;2.20;;;6.30;99.90;;;;;;5054016;28;20056;-71
2024/02/04 03:14:04;;;;;;;11.68;2.85;;;6.30;99.90;;;;;;5054044;28;20049;-71
2024/02/04 03:16:29;;;;;;;12.98;2.90;;;6.20;99.90;;;;;;5054031;28;20041;-71
2024/02/04 03:18:55;;;;;;;10.88;2.67;;;6.20;99.90;;;;;;5052677;28;20037;-71
2024/02/04 03:21:20;;;;;;;15.23;2.10;;;6.30;99.90;;;;;;5053894;28;20053;-71
2024/02/04 03:23:46;;;;;;;8.40;2.00;;;6.30;99.90;;;;;;5052761;28;20116;-70
2024/02/04 03:26:18;;;;;;;10.18;2.47;;;6.20;99.90;;;;;;5053706;28;20501;-70
2024/02/04 03:28:44;;;;;;;11.85;2.67;;;6.20;99.90;;;;;;5052468;28;20037;-71
2024/02/04 03:31:10;;;;;;;11.18;2.65;;;6.30;99.90;;;;;;5053784;28;20385;-71
2024/02/04 03:33:35;;;;;;;13.25;2.97;;;6.30;99.90;;;;;;5053762;28;20134;-71
2024/02/04 03:36:01;;;;;;;12.88;3.88;;;6.30;99.90;;;;;;5053686;28;20410;-71
2024/02/04 03:38:27;;;;;;;8.35;2.33;;;6.30;99.90;;;;;;5052474;28;20029;-71
2024/02/04 03:40:52;;;;;;;15.55;3.20;;;6.30;99.90;;;;;;5053406;28;20090;-71
2024/02/04 03:43:18;;;;;;;6.75;2.35;;;6.30;99.90;;;;;;5053522;28;20427;-71
2024/02/04 03:45:43;;;;;;;10.68;2.83;;;6.30;99.90;;;;;;5053692;28;20037;-70
2024/02/04 03:48:09;;;;;;;7.93;2.60;;;6.50;99.90;;;;;;5052292;28;20041;-71
2024/02/04 03:50:36;;;;;;;8.50;2.83;;;6.50;99.90;;;;;;5052174;28;20507;-71
2024/02/04 03:53:01;;;;;;;12.85;3.60;;;6.40;99.90;;;;;;5053518;28;20033;-71
2024/02/04 03:55:27;;;;;;;7.10;2.30;;;6.40;99.90;;;;;;5053351;28;20036;-71
2024/02/04 03:57:54;;;;;;;16.75;2.80;;;6.50;99.90;;;;;;5052067;28;20112;-71
2024/02/04 04:00:20;;;;;;;8.13;2.42;;;6.60;99.90;;;;;;5051708;28;20037;-71
2024/02/04 04:02:46;;;;;;;18.33;3.42;;;6.60;99.90;;;;;;5051955;28;20044;-70
2024/02/04 04:05:12;;;;;;;9.88;3.50;;;6.60;99.90;;;;;;5035609;28;20029;-70
2024/02/04 04:07:39;;;;;;;14.40;4.18;;;6.60;99.90;;;;;;5053082;28;20094;-71
2024/02/04 04:10:05;;;;;;;14.55;2.45;;;6.50;99.90;;;;;;5051615;28;20056;-71
2024/02/04 04:12:31;;;;;;;9.88;3.55;;;6.70;99.90;;;;;;5052906;28;20041;-71
2024/02/04 04:14:57;;;;;;;12.52;2.45;;;6.70;99.90;;;;;;5051960;28;20120;-71
2024/02/04 04:17:22;;;;;;;9.60;4.10;;;6.60;99.90;;;;;;5086402;22;20059;-78
2024/02/04 04:19:48;;;;;;;11.98;3.13;;;6.70;99.90;;;;;;5070676;28;20024;-78
2024/02/04 04:22:13;;;;;;;13.38;4.07;;;6.70;99.90;;;;;;5036808;28;20051;-78
2024/02/04 04:24:39;;;;;;;9.18;2.22;;;6.70;99.90;;;;;;5072300;28;20044;-78
2024/02/04 04:27:05;;;;;;;14.00;3.70;;;6.70;99.90;;;;;;5037869;28;20036;-78
2024/02/04 04:29:30;;;;;;;9.95;3.08;;;6.70;99.90;;;;;;5072413;28;20047;-78
2024/02/04 04:31:56;;;;;;;17.98;2.92;;;6.70;99.90;;;;;;5072351;28;20116;-78
2024/02/04 04:34:22;;;;;;;15.77;3.20;;;6.80;99.90;;;;;;5072350;28;20048;-78
2024/02/04 04:36:47;;;;;;;23.73;4.47;;;6.80;99.90;;;;;;5072327;28;20119;-78
2024/02/04 04:39:13;;;;;;;13.40;2.65;;;6.80;99.90;;;;;;5072075;28;20040;-78
2024/02/04 04:41:40;;;;;;;8.95;2.55;;;6.70;99.90;;;;;;5071367;28;20071;-78
2024/02/04 04:44:06;;;;;;;12.57;2.83;;;6.70;99.90;;;;;;5054329;28;20044;-78
2024/02/04 04:46:32;;;;;;;10.98;3.22;;;6.80;99.90;;;;;;5054426;28;20029;-78
2024/02/04 04:48:58;;;;;;;16.80;2.80;;;6.80;99.90;;;;;;5072217;28;20408;-77
2024/02/04 04:51:24;;;;;;;9.70;2.85;;;6.70;99.90;;;;;;5054051;28;20051;-77
2024/02/04 04:53:50;;;;;;;16.10;3.22;;;6.70;99.90;;;;;;5072080;28;20045;-78
2024/02/04 04:56:15;;;;;;;16.55;2.83;;;6.80;99.90;;;;;;5071921;28;20779;-78
2024/02/04 04:58:41;;;;;;;11.52;2.97;;;6.80;99.90;;;;;;5053900;28;20036;-78
2024/02/04 05:01:07;;;;;;;15.25;3.03;;;6.80;99.90;;;;;;5071897;28;20090;-78
2024/02/04 05:03:32;;;;;;;17.48;2.97;;;6.90;99.90;;;;;;5037642;28;20559;-78
2024/02/04 05:05:58;;;;;;;13.95;2.72;;;6.80;99.90;;;;;;5037419;28;20051;-77
2024/02/04 05:08:23;;;;;;;15.10;4.53;;;6.90;99.90;;;;;;5071632;28;20542;-78
2024/02/04 05:10:49;;;;;;;9.73;3.00;;;6.90;99.90;;;;;;5053619;28;20036;-77
2024/02/04 05:13:15;;;;;;;16.90;4.68;;;6.90;99.90;;;;;;5071977;28;20143;-77
2024/02/04 05:15:40;;;;;;;12.43;2.85;;;7.00;99.90;;;;;;5053918;28;20416;-77
2024/02/04 05:18:06;;;;;;;11.60;3.38;;;6.90;99.90;;;;;;5053885;28;20450;-77
2024/02/04 05:20:32;;;;;;;9.55;2.92;;;6.90;99.90;;;;;;5071473;28;20048;-77
2024/02/04 05:22:57;;;;;;;10.18;2.92;;;6.90;99.90;;;;;;5053683;28;20040;-77
2024/02/04 05:25:23;;;;;;;18.17;3.78;;;6.80;99.90;;;;;;5053859;28;20140;-78
2024/02/04 05:27:49;;;;;;;13.45;2.72;;;7.00;99.90;;;;;;5053807;28;20126;-78
2024/02/04 05:30:15;;;;;;;14.77;3.03;;;6.90;99.90;;;;;;5053565;28;20028;-78
2024/02/04 05:32:41;;;;;;;13.48;2.33;;;7.00;99.90;;;;;;5053720;28;20115;-77
2024/02/04 05:35:08;;;;;;;11.95;2.28;;;6.90;99.90;;;;;;5053681;28;20581;-77
2024/02/04 05:37:34;;;;;;;13.77;3.35;;;6.90;99.90;;;;;;5053338;28;20508;-78
2024/02/04 05:39:59;;;;;;;11.02;2.53;;;6.80;99.90;;;;;;5053333;28;20044;-78
2024/02/04 05:42:25;;;;;;;19.42;2.78;;;6.90;99.90;;;;;;5053789;28;20509;-78
2024/02/04 05:44:51;;;;;;;9.32;2.47;;;7.00;99.90;;;;;;5053571;28;20044;-78
2024/02/04 05:47:16;;;;;;;14.85;3.45;;;6.90;99.90;;;;;;5071440;28;20113;-78
2024/02/04 05:49:42;;;;;;;12.90;3.70;;;6.90;99.90;;;;;;5053330;28;20033;-78
2024/02/04 05:52:08;;;;;;;10.60;2.65;;;6.90;99.90;;;;;;5037461;28;20166;-78
2024/02/04 05:54:39;;;;;;;15.23;3.03;;;6.90;99.90;;;;;;5057565;28;20044;-78
2024/02/04 05:57:04;;;;;;;12.82;3.22;;;6.90;99.90;;;;;;5057674;28;20044;-78
2024/02/04 05:59:30;;;;;;;22.52;3.88;;;6.90;99.90;;;;;;5040606;28;20413;-78
2024/02/04 06:01:56;;;;;;;11.65;2.47;;;7.00;99.90;;;;;;5075424;28;20076;-78
2024/02/04 06:04:21;;;;;;;13.82;3.13;;;6.90;99.90;;;;;;5057408;28;20041;-78
2024/02/04 06:06:47;;;;;;;10.88;3.38;;;6.90;99.90;;;;;;5075245;28;20041;-77
2024/02/04 06:09:13;;;;;;;7.07;2.28;;;6.90;99.90;;;;;;5075043;28;20039;-78
2024/02/04 06:11:39;;;;;;;12.52;2.75;;;6.90;99.90;;;;;;5075478;28;20041;-78
2024/02/04 06:14:04;;;;;;;13.60;2.63;;;6.90;99.90;;;;;;5075469;28;20426;-77
2024/02/04 06:16:30;;;;;;;13.45;2.72;;;7.00;99.90;;;;;;5057328;28;20043;-78
2024/02/04 06:18:57;;;;;;;15.30;3.40;;;6.90;99.90;;;;;;5057074;28;20062;-78
2024/02/04 06:21:23;;;;;;;17.75;3.00;;;7.00;99.90;;;;;;5074796;28;20560;-77
2024/02/04 06:23:49;;;;;;;13.55;2.78;;;7.00;99.90;;;;;;5075012;28;20037;-78
2024/02/04 06:26:14;;;;;;;22.83;3.45;;;7.00;99.90;;;;;;5056999;28;20039;-77
2024/02/04 06:28:40;;;;;;;16.40;2.95;;;7.00;99.90;;;;;;5074935;28;20036;-78
2024/02/04 06:31:08;;;;;;;10.80;2.00;;;7.00;99.90;;;;;;5056866;28;20416;-78
2024/02/04 06:33:34;;;;;;;20.38;4.13;;;7.00;99.90;;;;;;5056812;28;20089;-78
2024/02/04 06:36:00;;;;;;;15.43;2.53;;;7.00;99.90;;;;;;5057059;28;20044;-77
2024/02/04 06:38:25;;;;;;;6.90;2.35;;;7.10;99.90;;;;;;5056779;28;20119;-77
2024/02/04 06:40:51;;;;;;;12.45;2.60;;;7.00;99.90;;;;;;5056871;28;20099;-78
2024/02/04 06:43:16;;;;;;;14.93;3.80;;;7.10;99.90;;;;;;5056770;28;20082;-77
2024/02/04 06:45:42;;;;;;;12.00;2.65;;;7.10;99.90;;;;;;5056964;28;20094;-78
2024/02/04 06:48:09;;;;;;;14.20;2.65;;;7.10;99.90;;;;;;5074490;28;20035;-78
2024/02/04 06:50:35;;;;;;;16.52;3.15;;;7.10;99.90;;;;;;5056350;28;20051;-77
2024/02/04 06:53:01;;;;;;;21.17;3.38;;;7.10;99.90;;;;;;5056834;28;20040;-77
2024/02/04 06:55:26;;;;;;;11.75;3.10;;;7.10;99.90;;;;;;5074651;28;20043;-77
2024/02/04 06:57:52;;;;;;;13.30;2.55;;;7.10;99.90;;;;;;5039810;28;20041;-77
2024/02/04 07:00:18;;;;;;;10.13;2.38;;;7.20;99.90;;;;;;5056416;28;20037;-78
2024/02/04 07:02:44;;;;;;;8.38;3.15;;;7.10;99.90;;;;;;5055874;28;20084;-78
2024/02/04 07:05:10;;;;;;;13.80;2.33;;;7.20;99.90;;;;;;5074159;28;20039;-77
2024/02/04 07:07:36;;;;;;;17.05;3.83;;;7.20;99.90;;;;;;5073889;28;20045;-78
2024/02/04 07:10:02;;;;;;;8.15;3.17;;;7.20;99.90;;;;;;5039843;28;20048;-77
2024/02/04 07:12:27;;;;;;;12.20;2.70;;;7.30;99.90;;;;;;5056166;28;20033;-78
2024/02/04 07:14:54;;;;;;;14.82;4.13;;;7.30;99.90;;;;;;5074053;28;20055;-77
2024/02/04 07:17:20;;;;;;;9.35;2.28;;;7.30;99.90;;;;;;5056130;28;20041;-77
2024/02/04 07:19:45;;;;;;;14.20;3.58;;;7.30;99.90;;;;;;5073904;28;20040;-77
2024/02/04 07:22:11;;;;;;;13.70;4.10;;;7.30;99.90;;;;;;5055964;28;20440;-77
2024/02/04 07:24:36;;;;;;;17.77;3.25;;;7.40;99.90;;;;;;5056025;28;20036;-77
2024/02/04 07:27:02;;;;;;;13.65;3.65;;;7.40;99.90;;;;;;5055899;28;20040;-77
2024/02/04 07:29:28;;;;;;;16.70;3.47;;;7.40;99.90;;;;;;5073648;28;20131;-78
2024/02/04 07:31:53;;;;;;;10.60;2.58;;;7.40;99.90;;;;;;5055865;28;20130;-77
2024/02/04 07:34:19;;;;;;;11.75;2.50;;;7.40;99.90;;;;;;5055874;28;20040;-77
2024/02/04 07:36:45;;;;;;;15.27;2.70;;;7.40;99.90;;;;;;5073571;28;20040;-77
2024/02/04 07:39:11;;;;;;;17.25;3.40;;;7.50;99.90;;;;;;5073625;28;20082;-78
2024/02/04 07:41:36;;;;;;;12.82;2.53;;;7.50;99.90;;;;;;5055469;28;20090;-77
2024/02/04 07:44:02;;;;;;;18.15;2.92;;;7.40;99.90;;;;;;5039033;28;20454;-77
2024/02/04 07:46:28;;;;;;;12.27;2.13;;;7.50;99.90;;;;;;5055232;28;20040;-77
2024/02/04 07:48:53;;;;;;;10.88;3.40;;;7.50;99.90;;;;;;5055206;28;20066;-78
2024/02/04 07:51:20;;;;;;;16.58;3.15;;;7.50;99.90;;;;;;5055308;28;20480;-77
2024/02/04 07:53:45;;;;;;;14.38;3.92;;;7.50;99.90;;;;;;5073322;28;20515;-77
2024/02/04 07:56:11;;;;;;;14.02;3.05;;;7.60;99.90;;;;;;5055397;28;20040;-77
2024/02/04 07:58:37;;;;;;;15.05;3.25;;;7.60;99.90;;;;;;5038849;28;20048;-77
2024/02/04 08:01:03;;;;;;;9.68;2.08;;;7.60;99.90;;;;;;5055153;28;20032;-77
2024/02/04 08:03:31;;;;;;;9.77;2.33;;;7.60;99.90;;;;;;5073131;28;20037;-77
2024/02/04 08:05:57;;;;;;;14.65;2.40;;;7.60;99.90;;;;;;5055099;28;20043;-78
2024/02/04 08:08:22;;;;;;;16.00;3.15;;;7.60;99.90;;;;;;5055341;28;20033;-78
2024/02/04 08:10:48;;;;;;;17.08;4.05;;;7.70;99.90;;;;;;5055231;28;20097;-77
2024/02/04 08:13:14;;;;;;;11.18;2.97;;;7.70;99.90;;;;;;5055915;28;20048;-78
2024/02/04 08:15:39;;;;;;;14.32;3.50;;;7.80;99.90;;;;;;5072114;28;20045;-77
2024/02/04 08:18:05;;;;;;;18.67;2.60;;;7.80;99.90;;;;;;5072642;28;20051;-77
2024/02/04 08:20:31;;;;;;;11.27;2.58;;;7.80;99.90;;;;;;5054625;28;20028;-77
2024/02/04 08:22:56;;;;;;;9.80;2.42;;;7.80;99.90;;;;;;5054860;28;20036;-77
2024/02/04 08:25:22;;;;;;;18.40;2.88;;;7.80;99.90;;;;;;5055063;28;20042;-76
2024/02/04 08:27:48;;;;;;;12.02;2.33;;;7.80;99.90;;;;;;5072774;28;20563;-76
2024/02/04 08:30:14;;;;;;;11.93;3.00;;;7.90;99.90;;;;;;5055805;28;20047;-77
2024/02/04 08:32:39;;;;;;;9.98;2.80;;;7.90;99.90;;;;;;5054977;28;20086;-77
2024/02/04 08:35:06;;;;;;;15.13;3.67;;;7.90;99.90;;;;;;5087135;28;20044;-77
2024/02/04 08:37:35;;;;;;;9.27;2.30;;;7.90;99.90;;;;;;5092078;28;20028;-77
2024/02/04 08:40:02;;;;;;;8.77;2.72;;;7.90;99.90;;;;;;5092452;28;20043;-77
2024/02/04 08:42:28;;;;;;;15.27;3.10;;;7.90;99.90;;;;;;5092736;28;20044;-77
2024/02/04 08:44:53;;;;;;;11.55;2.72;;;8.00;99.90;;;;;;5057987;28;20720;-77
2024/02/04 08:47:19;;;;;;;18.02;2.50;;;8.00;99.90;;;;;;5074575;28;20496;-77
2024/02/04 08:49:44;;;;;;;18.08;3.97;;;8.10;99.90;;;;;;5074112;28;20146;-76
2024/02/04 08:52:10;;;;;;;12.63;3.08;;;8.10;99.90;;;;;;5074425;28;20032;-77
2024/02/04 08:54:36;;;;;;;13.23;2.65;;;8.10;99.90;;;;;;5089664;28;20039;-75
2024/02/04 08:57:01;;;;;;;13.63;3.92;;;8.20;99.90;;;;;;5082800;28;20028;-77
2024/02/04 08:59:27;;;;;;;14.60;4.07;;;8.20;99.90;;;;;;5073748;28;20125;-77
2024/02/04 09:01:52;;;;;;;9.50;2.45;;;8.20;99.90;;;;;;5073669;28;20118;-77
2024/02/04 09:04:18;;;;;;;13.70;2.92;;;8.20;99.90;;;;;;5074329;28;20042;-77
2024/02/04 09:06:45;;;;;;;13.00;3.50;;;8.40;99.90;;;;;;5073757;28;20097;-77
2024/02/04 09:09:10;;;;;;;9.48;3.13;;;8.30;99.90;;;;;;5092566;28;20048;-78
2024/02/04 09:11:36;;;;;;;12.90;3.03;;;8.30;99.90;;;;;;5092053;28;20465;-78
2024/02/04 09:14:04;;;;;;;10.15;2.50;;;8.40;99.90;;;;;;5091835;28;20040;-78
2024/02/04 09:16:29;;;;;;;11.45;3.05;;;8.40;99.90;;;;;;5056809;28;20036;-77
2024/02/04 09:18:55;;;;;;;8.18;2.47;;;8.50;99.90;;;;;;5094340;28;20042;-77
2024/02/04 09:21:21;;;;;;;13.07;3.22;;;8.50;99.90;;;;;;5094598;28;20044;-79
2024/02/04 09:23:47;;;;;;;14.95;2.90;;;8.50;99.90;;;;;;5077206;28;20069;-77
2024/02/04 09:26:13;;;;;;;12.18;3.35;;;8.50;99.90;;;;;;5092185;28;20039;-76
2024/02/04 09:28:38;;;;;;;14.98;3.00;;;8.50;99.90;;;;;;5073489;28;20032;-78
2024/02/04 09:31:04;;;;;;;17.40;2.95;;;8.50;99.90;;;;;;5073564;28;20051;-79
2024/02/04 09:33:30;;;;;;;20.55;2.78;;;8.60;99.90;;;;;;5093991;28;20032;-77
2024/02/04 09:35:55;;;;;;;9.95;3.10;;;8.50;99.90;;;;;;5093728;28;20441;-77
2024/02/04 09:38:21;;;;;;;13.93;2.78;;;8.60;99.90;;;;;;5081749;28;20050;-79
2024/02/04 09:40:47;;;;;;;9.95;3.42;;;8.60;99.90;;;;;;5090963;28;20050;-79
2024/02/04 09:43:13;;;;;;;9.98;3.67;;;8.70;99.90;;;;;;5087987;28;20074;-79
2024/02/04 09:45:39;;;;;;;10.77;2.53;;;8.70;99.90;;;;;;5094543;28;20067;-79
2024/02/04 09:48:08;;;;;;;12.55;3.65;;;8.70;99.90;;;;;;5093638;28;20032;-78
2024/02/04 09:50:33;;;;;;;14.95;2.72;;;8.80;99.90;;;;;;5097290;28;20082;-79
2024/02/04 09:53:00;;;;;;;9.15;3.97;;;8.80;99.90;;;;;;5083863;28;20407;-77
2024/02/04 09:55:28;;;;;;;12.27;3.40;;;8.80;99.90;;;;;;5056933;28;20048;-77
2024/02/04 09:57:54;;;;;;;14.35;2.80;;;8.80;99.90;;;;;;5091489;28;20115;-75
2024/02/04 10:00:23;;;;;;;12.80;2.53;;;8.80;99.90;;;;;;5073446;28;20144;-76
2024/02/04 10:02:48;;;;;;;8.52;2.80;;;8.90;99.90;;;;;;5075743;28;20423;-79
2024/02/04 10:05:15;;;;;;;8.55;2.63;;;8.90;99.90;;;;;;5075850;28;20044;-78
2024/02/04 10:07:41;;;;;;;12.52;3.38;;;8.90;99.90;;;;;;5091592;28;20446;-77
2024/02/04 10:10:07;;;;;;;11.27;2.25;;;8.90;99.90;;;;;;5091474;28;20036;-76
2024/02/04 10:12:35;;;;;;;14.80;4.93;;;8.90;99.90;;;;;;5092683;28;20032;-78
2024/02/04 10:15:02;;;;;;;8.30;3.08;;;8.90;99.90;;;;;;5091551;28;20048;-77
2024/02/04 10:17:27;;;;;;;5.72;2.03;;;8.90;99.90;;;;;;5075104;28;20036;-78
2024/02/04 10:19:53;;;;;;;9.15;2.28;;;8.90;99.90;;;;;;5073853;28;20135;-77
2024/02/04 10:22:18;;;;;;;12.20;2.40;;;8.90;99.90;;;;;;5079373;28;20036;-79
2024/02/04 10:24:46;;;;;;;8.65;2.28;;;8.90;99.90;;;;;;5076602;28;20047;-77
2024/02/04 10:27:12;;;;;;;11.80;2.17;;;9.00;99.90;;;;;;5072027;28;20036;-77
2024/02/04 10:29:38;;;;;;;6.70;2.60;;;9.00;99.90;;;;;;5085614;28;20040;-76
2024/02/04 10:32:04;;;;;;;15.63;2.85;;;9.00;99.90;;;;;;5073432;28;20050;-78
2024/02/04 10:34:30;;;;;;;9.93;2.13;;;9.10;99.90;;;;;;5093200;28;20044;-76
2024/02/04 10:36:58;;;;;;;9.15;2.33;;;9.10;99.90;;;;;;5072951;28;20123;-77
2024/02/04 10:39:24;;;;;;;10.80;2.35;;;9.10;99.90;;;;;;5058606;28;20039;-77
2024/02/04 10:41:52;;;;;;;11.50;2.20;;;9.20;99.90;;;;;;5076670;28;20412;-77
2024/02/04 10:44:20;;;;;;;6.53;1.77;;;9.20;99.90;;;;;;5076965;28;20040;-76
2024/02/04 10:46:47;;;;;;;5.13;1.63;;;9.20;99.90;;;;;;5076175;28;20085;-77
2024/02/04 10:49:15;;;;;;;9.05;2.03;;;9.30;99.90;;;;;;5094667;28;20047;-77
2024/02/04 10:51:42;;;;;;;5.93;1.60;;;9.30;99.90;;;;;;5077052;28;20074;-77
2024/02/04 10:54:08;;;;;;;7.15;1.88;;;9.40;99.90;;;;;;5095210;28;20042;-77
2024/02/04 10:56:37;;;;;;;7.22;1.67;;;9.40;99.90;;;;;;5076631;28;20047;-77
2024/02/04 10:59:03;;;;;;;11.25;2.22;;;9.40;99.90;;;;;;5077779;28;20043;-79
2024/02/04 11:01:30;;;;;;;11.48;1.75;;;9.40;99.90;;;;;;5094547;28;20051;-77
2024/02/04 11:03:57;;;;;;;11.20;2.22;;;9.40;99.90;;;;;;5080931;28;20452;-80
2024/02/04 11:06:23;;;;;;;8.50;2.55;;;9.40;99.90;;;;;;5095356;28;20043;-78
2024/02/04 11:08:52;;;;;;;6.72;1.52;;;9.30;99.90;;;;;;5077204;28;20083;-77
2024/02/04 11:11:18;;;;;;;11.75;1.80;;;9.40;99.90;;;;;;5094560;28;20411;-77
2024/02/04 11:13:47;;;;;;;9.50;1.88;;;9.30;99.90;;;;;;5077890;28;20523;-77
2024/02/04 11:16:50;;;;;;;7.07;1.60;;;9.30;99.90;;;;;;5077797;28;20036;-77
2024/02/04 11:19:54;;;;;;;7.40;1.85;;;9.40;99.90;;;;;;5094613;28;20040;-77
2024/02/04 11:22:48;;;;;;;8.23;2.47;;;9.30;99.90;;;;;;5012782;28;20129;-78
2024/02/04 11:25:29;;;;;;;9.88;2.40;;;9.20;99.90;;;;;;5096551;28;20514;-80
2024/02/04 11:27:55;;;;;;;7.22;2.25;;;9.30;99.90;;;;;;5078939;28;20024;-78
2024/02/04 11:30:23;;;;;;;15.18;2.08;;;9.30;99.90;;;;;;5095902;28;20044;-77
2024/02/04 11:32:48;;;;;;;7.55;2.35;;;9.30;99.90;;;;;;5076895;28;20433;-79
2024/02/04 11:35:14;;;;;;;11.15;2.38;;;9.30;99.90;;;;;;5075838;28;20088;-77
2024/02/04 11:37:45;;;;;;;7.50;1.30;;;9.20;99.90;;;;;;5093788;28;20503;-77
2024/02/04 11:40:16;;;;;;;5.75;2.00;;;9.30;99.90;;;;;;5094896;28;20521;-77
2024/02/04 11:42:42;;;;;;;9.95;2.65;;;9.30;99.90;;;;;;5077657;28;20044;-76
2024/02/04 11:45:12;;;;;;;11.80;2.33;;;9.30;99.90;;;;;;5077314;28;20051;-76
2024/02/04 11:47:39;;;;;;;8.15;1.77;;;9.40;99.90;;;;;;5075681;28;20491;-77
2024/02/04 11:50:05;;;;;;;15.23;3.17;;;9.40;99.90;;;;;;5074175;28;20036;-76
2024/02/04 11:52:31;;;;;;;9.60;1.70;;;9.40;99.90;;;;;;5093664;28;20032;-78
2024/02/04 11:54:57;;;;;;;9.55;2.00;;;9.40;99.90;;;;;;5095060;28;20420;-78
2024/02/04 11:57:23;;;;;;;5.03;1.50;;;9.40;99.90;;;;;;5077957;28;20044;-77
2024/02/04 11:59:50;;;;;;;9.02;1.67;;;9.40;99.90;;;;;;5075175;28;20075;-77
2024/02/04 12:02:19;;;;;;;11.60;3.35;;;9.40;99.90;;;;;;5074886;28;20044;-77
2024/02/04 12:04:46;;;;;;;6.68;1.77;;;9.50;99.90;;;;;;5093428;28;20032;-77
2024/02/04 12:07:14;;;;;;;15.10;2.53;;;9.50;99.90;;;;;;5075817;28;20071;-76
2024/02/04 12:09:40;;;;;;;11.32;2.28;;;9.50;99.90;;;;;;5058218;28;20463;-77
2024/02/04 12:12:06;;;;;;;7.80;2.50;;;9.60;99.90;;;;;;5093442;28;20062;-76
2024/02/04 12:14:34;;;;;;;8.77;1.92;;;9.60;99.90;;;;;;5075072;28;20044;-76
2024/02/04 12:17:12;;;;;;;11.68;2.67;;;9.60;99.90;;;;;;5074551;28;20055;-76
2024/02/04 12:19:38;;;;;;;4.28;1.85;;;9.60;99.90;;;;;;5075375;28;20079;-77
2024/02/04 12:22:09;;;;;;;7.55;2.40;;;9.60;99.90;;;;;;5075008;28;20121;-77
2024/02/04 12:24:38;;;;;;;6.78;2.42;;;9.70;99.90;;;;;;5058252;28;20062;-76
2024/02/04 12:27:04;;;;;;;6.60;2.10;;;9.70;99.90;;;;;;5076786;28;20036;-79
2024/02/04 12:29:31;;;;;;;5.93;2.67;;;9.70;99.90;;;;;;5079071;28;20483;-78
2024/02/04 12:32:01;;;;;;;6.70;2.08;;;9.70;99.90;;;;;;5095780;28;20036;-78
2024/02/04 12:34:27;;;;;;;5.90;1.67;;;9.70;99.90;;;;;;5095476;28;20499;-78
2024/02/04 12:37:02;;;;;;;4.55;1.77;;;9.70;99.90;;;;;;5077701;28;20040;-78
2024/02/04 12:39:29;;;;;;;7.07;1.58;;;9.70;99.90;;;;;;5094904;28;20028;-76
2024/02/04 12:41:54;;;;;;;7.82;1.70;;;9.70;99.90;;;;;;5058055;28;20127;-77
2024/02/04 12:44:20;;;;;;;6.03;1.33;;;9.70;99.90;;;;;;5074746;28;20127;-76
2024/02/04 12:46:50;;;;;;;4.28;1.38;;;9.70;99.90;;;;;;5074327;28;20051;-77